sensor_id;sensor_type;location;lat;lon;timestamp;P1;durP1;ratioP1;P2;durP2;ratioP2
53833;SDS011;39735;51.432;5.482;2022-07-01T00:01:28;8.60;;;7.82;;
53833;SDS011;39735;51.432;5.482;2022-07-01T00:03:53;18.90;;;8.63;;
53833;SDS011;39735;51.432;5.482;2022-07-01T00:06:18;11.10;;;8.60;;
53833;SDS011;39735;51.432;5.482;2022-07-01T00:08:44;11.88;;;8.50;;
53833;SDS011;39735;51.432;5.482;2022-07-01T00:11:11;8.45;;;7.35;;
53833;SDS011;39735;51.432;5.482;2022-07-01T00:13:36;12.85;;;7.93;;
53833;SDS011;39735;51.432;5.482;2022-07-01T00:16:02;10.98;;;8.88;;
53833;SDS011;39735;51.432;5.482;2022-07-01T00:18:27;15.25;;;9.00;;
53833;SDS011;39735;51.432;5.482;2022-07-01T00:20:53;10.30;;;7.60;;
53833;SDS011;39735;51.432;5.482;2022-07-01T00:23:18;30.73;;;9.27;;
53833;SDS011;39735;51.432;5.482;2022-07-01T00:25:44;20.20;;;8.95;;
53833;SDS011;39735;51.432;5.482;2022-07-01T00:28:10;10.15;;;9.15;;
53833;SDS011;39735;51.432;5.482;2022-07-01T00:30:36;14.65;;;9.13;;
53833;SDS011;39735;51.432;5.482;2022-07-01T00:33:02;18.25;;;9.30;;
53833;SDS011;39735;51.432;5.482;2022-07-01T00:35:27;25.45;;;11.32;;
53833;SDS011;39735;51.432;5.482;2022-07-01T00:37:52;12.63;;;9.32;;
53833;SDS011;39735;51.432;5.482;2022-07-01T00:40:18;10.70;;;9.10;;
53833;SDS011;39735;51.432;5.482;2022-07-01T00:42:43;21.88;;;9.40;;
53833;SDS011;39735;51.432;5.482;2022-07-01T00:45:09;9.00;;;8.15;;
53833;SDS011;39735;51.432;5.482;2022-07-01T00:47:35;50.83;;;11.10;;
53833;SDS011;39735;51.432;5.482;2022-07-01T00:50:02;18.92;;;10.15;;
53833;SDS011;39735;51.432;5.482;2022-07-01T00:52:32;19.88;;;13.05;;
53833;SDS011;39735;51.432;5.482;2022-07-01T00:54:58;19.77;;;12.05;;
53833;SDS011;39735;51.432;5.482;2022-07-01T00:57:24;11.95;;;10.70;;
53833;SDS011;39735;51.432;5.482;2022-07-01T00:59:54;20.65;;;12.55;;
53833;SDS011;39735;51.432;5.482;2022-07-01T01:02:20;31.00;;;12.95;;
53833;SDS011;39735;51.432;5.482;2022-07-01T01:04:46;22.77;;;13.10;;
53833;SDS011;39735;51.432;5.482;2022-07-01T01:07:12;38.25;;;14.10;;
53833;SDS011;39735;51.432;5.482;2022-07-01T01:09:38;41.63;;;16.25;;
53833;SDS011;39735;51.432;5.482;2022-07-01T01:12:04;32.22;;;13.55;;
53833;SDS011;39735;51.432;5.482;2022-07-01T01:14:29;27.80;;;14.02;;
53833;SDS011;39735;51.432;5.482;2022-07-01T01:16:55;28.98;;;14.73;;
53833;SDS011;39735;51.432;5.482;2022-07-01T01:19:20;32.13;;;14.20;;
53833;SDS011;39735;51.432;5.482;2022-07-01T01:21:46;29.25;;;14.70;;
53833;SDS011;39735;51.432;5.482;2022-07-01T01:24:11;23.23;;;13.48;;
53833;SDS011;39735;51.432;5.482;2022-07-01T01:26:37;49.22;;;16.65;;
53833;SDS011;39735;51.432;5.482;2022-07-01T01:29:04;31.73;;;14.48;;
53833;SDS011;39735;51.432;5.482;2022-07-01T01:31:29;35.55;;;16.67;;
53833;SDS011;39735;51.432;5.482;2022-07-01T01:33:57;33.38;;;13.63;;
53833;SDS011;39735;51.432;5.482;2022-07-01T01:36:23;29.92;;;15.93;;
53833;SDS011;39735;51.432;5.482;2022-07-01T01:38:48;34.75;;;15.50;;
53833;SDS011;39735;51.432;5.482;2022-07-01T01:41:13;21.90;;;12.85;;
53833;SDS011;39735;51.432;5.482;2022-07-01T01:43:39;28.50;;;13.45;;
53833;SDS011;39735;51.432;5.482;2022-07-01T01:46:04;26.77;;;13.48;;
53833;SDS011;39735;51.432;5.482;2022-07-01T01:48:30;30.98;;;14.10;;
53833;SDS011;39735;51.432;5.482;2022-07-01T01:50:56;27.10;;;13.75;;
53833;SDS011;39735;51.432;5.482;2022-07-01T01:53:22;28.83;;;14.18;;
53833;SDS011;39735;51.432;5.482;2022-07-01T01:55:47;36.05;;;14.38;;
53833;SDS011;39735;51.432;5.482;2022-07-01T01:58:12;32.03;;;13.38;;
53833;SDS011;39735;51.432;5.482;2022-07-01T02:00:38;28.90;;;13.98;;
53833;SDS011;39735;51.432;5.482;2022-07-01T02:03:03;39.05;;;13.52;;
53833;SDS011;39735;51.432;5.482;2022-07-01T02:05:29;24.65;;;11.55;;
53833;SDS011;39735;51.432;5.482;2022-07-01T02:07:55;27.45;;;13.85;;
53833;SDS011;39735;51.432;5.482;2022-07-01T02:10:20;26.38;;;14.35;;
53833;SDS011;39735;51.432;5.482;2022-07-01T02:12:46;36.72;;;12.65;;
53833;SDS011;39735;51.432;5.482;2022-07-01T02:15:12;22.73;;;13.85;;
53833;SDS011;39735;51.432;5.482;2022-07-01T02:17:37;21.52;;;13.52;;
53833;SDS011;39735;51.432;5.482;2022-07-01T02:20:03;31.00;;;12.88;;
53833;SDS011;39735;51.432;5.482;2022-07-01T02:22:29;33.90;;;13.00;;
53833;SDS011;39735;51.432;5.482;2022-07-01T02:24:54;24.08;;;13.18;;
53833;SDS011;39735;51.432;5.482;2022-07-01T02:27:20;28.90;;;12.70;;
53833;SDS011;39735;51.432;5.482;2022-07-01T02:29:45;21.75;;;10.48;;
53833;SDS011;39735;51.432;5.482;2022-07-01T02:32:10;36.40;;;12.95;;
53833;SDS011;39735;51.432;5.482;2022-07-01T02:34:36;31.27;;;11.18;;
53833;SDS011;39735;51.432;5.482;2022-07-01T02:37:01;24.50;;;12.57;;
53833;SDS011;39735;51.432;5.482;2022-07-01T02:39:26;23.83;;;11.05;;
53833;SDS011;39735;51.432;5.482;2022-07-01T02:41:52;22.17;;;11.90;;
53833;SDS011;39735;51.432;5.482;2022-07-01T02:44:36;16.25;;;11.00;;
53833;SDS011;39735;51.432;5.482;2022-07-01T02:47:01;27.25;;;13.68;;
53833;SDS011;39735;51.432;5.482;2022-07-01T02:49:27;27.77;;;12.43;;
53833;SDS011;39735;51.432;5.482;2022-07-01T02:51:52;27.63;;;13.23;;
53833;SDS011;39735;51.432;5.482;2022-07-01T02:54:17;22.02;;;11.30;;
53833;SDS011;39735;51.432;5.482;2022-07-01T02:56:43;19.70;;;12.10;;
53833;SDS011;39735;51.432;5.482;2022-07-01T02:59:08;34.85;;;13.15;;
53833;SDS011;39735;51.432;5.482;2022-07-01T03:01:35;25.73;;;13.25;;
53833;SDS011;39735;51.432;5.482;2022-07-01T03:04:00;19.38;;;11.77;;
53833;SDS011;39735;51.432;5.482;2022-07-01T03:06:26;32.53;;;14.65;;
53833;SDS011;39735;51.432;5.482;2022-07-01T03:08:52;28.73;;;14.07;;
53833;SDS011;39735;51.432;5.482;2022-07-01T03:11:17;25.30;;;13.38;;
53833;SDS011;39735;51.432;5.482;2022-07-01T03:13:43;26.58;;;12.25;;
53833;SDS011;39735;51.432;5.482;2022-07-01T03:16:08;35.72;;;13.85;;
53833;SDS011;39735;51.432;5.482;2022-07-01T03:18:33;47.08;;;14.43;;
53833;SDS011;39735;51.432;5.482;2022-07-01T03:20:59;23.38;;;13.35;;
53833;SDS011;39735;51.432;5.482;2022-07-01T03:23:24;26.13;;;13.93;;
53833;SDS011;39735;51.432;5.482;2022-07-01T03:25:50;27.95;;;12.98;;
53833;SDS011;39735;51.432;5.482;2022-07-01T03:28:15;20.80;;;13.57;;
53833;SDS011;39735;51.432;5.482;2022-07-01T03:30:42;41.63;;;16.88;;
53833;SDS011;39735;51.432;5.482;2022-07-01T03:33:07;26.33;;;14.02;;
53833;SDS011;39735;51.432;5.482;2022-07-01T03:35:32;31.67;;;15.57;;
53833;SDS011;39735;51.432;5.482;2022-07-01T03:38:01;24.75;;;12.98;;
53833;SDS011;39735;51.432;5.482;2022-07-01T03:40:28;17.27;;;13.63;;
53833;SDS011;39735;51.432;5.482;2022-07-01T03:42:53;24.58;;;13.70;;
53833;SDS011;39735;51.432;5.482;2022-07-01T03:45:19;35.05;;;15.18;;
53833;SDS011;39735;51.432;5.482;2022-07-01T03:47:48;23.60;;;14.55;;
53833;SDS011;39735;51.432;5.482;2022-07-01T03:50:14;25.73;;;12.48;;
53833;SDS011;39735;51.432;5.482;2022-07-01T03:52:40;29.48;;;14.73;;
53833;SDS011;39735;51.432;5.482;2022-07-01T03:55:07;30.23;;;14.57;;
53833;SDS011;39735;51.432;5.482;2022-07-01T03:57:35;42.30;;;12.80;;
53833;SDS011;39735;51.432;5.482;2022-07-01T04:00:01;32.63;;;15.13;;
53833;SDS011;39735;51.432;5.482;2022-07-01T04:02:27;29.90;;;13.20;;
53833;SDS011;39735;51.432;5.482;2022-07-01T04:04:52;45.95;;;13.32;;
53833;SDS011;39735;51.432;5.482;2022-07-01T04:07:17;36.70;;;14.45;;
53833;SDS011;39735;51.432;5.482;2022-07-01T04:09:43;37.78;;;16.45;;
53833;SDS011;39735;51.432;5.482;2022-07-01T04:12:08;24.50;;;13.65;;
53833;SDS011;39735;51.432;5.482;2022-07-01T04:14:35;35.15;;;13.88;;
53833;SDS011;39735;51.432;5.482;2022-07-01T04:17:01;32.05;;;14.60;;
53833;SDS011;39735;51.432;5.482;2022-07-01T04:19:27;26.25;;;15.27;;
53833;SDS011;39735;51.432;5.482;2022-07-01T04:21:53;27.65;;;13.25;;
53833;SDS011;39735;51.432;5.482;2022-07-01T04:24:37;30.55;;;12.18;;
53833;SDS011;39735;51.432;5.482;2022-07-01T04:27:02;19.40;;;12.55;;
53833;SDS011;39735;51.432;5.482;2022-07-01T04:29:28;16.98;;;11.98;;
53833;SDS011;39735;51.432;5.482;2022-07-01T04:31:57;25.92;;;13.65;;
53833;SDS011;39735;51.432;5.482;2022-07-01T04:34:23;22.27;;;13.05;;
53833;SDS011;39735;51.432;5.482;2022-07-01T04:36:49;24.52;;;12.18;;
53833;SDS011;39735;51.432;5.482;2022-07-01T04:39:14;16.05;;;10.20;;
53833;SDS011;39735;51.432;5.482;2022-07-01T04:41:39;14.40;;;10.00;;
53833;SDS011;39735;51.432;5.482;2022-07-01T04:44:23;26.70;;;11.80;;
53833;SDS011;39735;51.432;5.482;2022-07-01T04:46:49;17.98;;;10.68;;
53833;SDS011;39735;51.432;5.482;2022-07-01T04:49:14;41.25;;;15.55;;
53833;SDS011;39735;51.432;5.482;2022-07-01T04:51:39;22.67;;;11.38;;
53833;SDS011;39735;51.432;5.482;2022-07-01T04:54:05;22.02;;;11.60;;
53833;SDS011;39735;51.432;5.482;2022-07-01T04:56:31;17.80;;;11.52;;
53833;SDS011;39735;51.432;5.482;2022-07-01T04:58:58;55.50;;;12.25;;
53833;SDS011;39735;51.432;5.482;2022-07-01T05:01:24;12.38;;;8.90;;
53833;SDS011;39735;51.432;5.482;2022-07-01T05:03:49;42.88;;;11.77;;
53833;SDS011;39735;51.432;5.482;2022-07-01T05:06:15;30.70;;;10.52;;
53833;SDS011;39735;51.432;5.482;2022-07-01T05:08:40;30.45;;;10.25;;
53833;SDS011;39735;51.432;5.482;2022-07-01T05:11:06;26.55;;;10.82;;
53833;SDS011;39735;51.432;5.482;2022-07-01T05:13:31;21.77;;;10.18;;
53833;SDS011;39735;51.432;5.482;2022-07-01T05:15:58;14.05;;;10.35;;
53833;SDS011;39735;51.432;5.482;2022-07-01T05:18:23;18.73;;;8.88;;
53833;SDS011;39735;51.432;5.482;2022-07-01T05:21:07;18.42;;;10.48;;
53833;SDS011;39735;51.432;5.482;2022-07-01T05:23:51;17.65;;;9.25;;
53833;SDS011;39735;51.432;5.482;2022-07-01T05:26:16;17.33;;;8.23;;
53833;SDS011;39735;51.432;5.482;2022-07-01T05:28:45;18.00;;;10.63;;
53833;SDS011;39735;51.432;5.482;2022-07-01T05:31:11;8.27;;;7.57;;
53833;SDS011;39735;51.432;5.482;2022-07-01T05:33:37;17.67;;;7.57;;
53833;SDS011;39735;51.432;5.482;2022-07-01T05:36:02;15.95;;;10.07;;
53833;SDS011;39735;51.432;5.482;2022-07-01T05:38:28;21.27;;;8.68;;
53833;SDS011;39735;51.432;5.482;2022-07-01T05:40:53;16.67;;;9.50;;
53833;SDS011;39735;51.432;5.482;2022-07-01T05:43:19;16.52;;;9.70;;
53833;SDS011;39735;51.432;5.482;2022-07-01T05:45:47;9.40;;;8.18;;
53833;SDS011;39735;51.432;5.482;2022-07-01T05:48:13;21.85;;;10.25;;
53833;SDS011;39735;51.432;5.482;2022-07-01T05:50:41;28.73;;;9.85;;
53833;SDS011;39735;51.432;5.482;2022-07-01T05:53:08;14.23;;;8.95;;
53833;SDS011;39735;51.432;5.482;2022-07-01T05:55:33;28.20;;;9.80;;
53833;SDS011;39735;51.432;5.482;2022-07-01T05:57:59;16.92;;;7.57;;
53833;SDS011;39735;51.432;5.482;2022-07-01T06:00:26;25.35;;;8.55;;
53833;SDS011;39735;51.432;5.482;2022-07-01T06:02:51;25.08;;;8.45;;
53833;SDS011;39735;51.432;5.482;2022-07-01T06:05:17;25.55;;;10.05;;
53833;SDS011;39735;51.432;5.482;2022-07-01T06:07:42;22.65;;;7.95;;
53833;SDS011;39735;51.432;5.482;2022-07-01T06:10:08;11.95;;;7.63;;
53833;SDS011;39735;51.432;5.482;2022-07-01T06:12:37;13.55;;;6.57;;
53833;SDS011;39735;51.432;5.482;2022-07-01T06:15:06;17.95;;;7.60;;
53833;SDS011;39735;51.432;5.482;2022-07-01T06:17:33;13.90;;;7.78;;
53833;SDS011;39735;51.432;5.482;2022-07-01T06:19:59;21.83;;;8.65;;
53833;SDS011;39735;51.432;5.482;2022-07-01T06:22:24;24.80;;;7.15;;
53833;SDS011;39735;51.432;5.482;2022-07-01T06:24:49;14.25;;;6.80;;
53833;SDS011;39735;51.432;5.482;2022-07-01T06:27:15;8.77;;;7.03;;
53833;SDS011;39735;51.432;5.482;2022-07-01T06:29:40;19.45;;;6.72;;
53833;SDS011;39735;51.432;5.482;2022-07-01T06:32:06;24.67;;;6.47;;
53833;SDS011;39735;51.432;5.482;2022-07-01T06:34:33;28.08;;;6.47;;
53833;SDS011;39735;51.432;5.482;2022-07-01T06:36:58;16.65;;;7.43;;
53833;SDS011;39735;51.432;5.482;2022-07-01T06:39:27;18.58;;;5.57;;
53833;SDS011;39735;51.432;5.482;2022-07-01T06:41:52;24.20;;;6.22;;
53833;SDS011;39735;51.432;5.482;2022-07-01T06:44:18;9.02;;;5.32;;
53833;SDS011;39735;51.432;5.482;2022-07-01T06:46:43;16.73;;;5.50;;
53833;SDS011;39735;51.432;5.482;2022-07-01T06:49:09;14.20;;;5.35;;
53833;SDS011;39735;51.432;5.482;2022-07-01T06:51:34;23.42;;;6.18;;
53833;SDS011;39735;51.432;5.482;2022-07-01T06:54:00;36.67;;;7.40;;
53833;SDS011;39735;51.432;5.482;2022-07-01T06:56:25;26.83;;;5.20;;
53833;SDS011;39735;51.432;5.482;2022-07-01T06:58:50;29.52;;;5.47;;
53833;SDS011;39735;51.432;5.482;2022-07-01T07:01:16;7.30;;;4.35;;
53833;SDS011;39735;51.432;5.482;2022-07-01T07:03:41;18.38;;;5.95;;
53833;SDS011;39735;51.432;5.482;2022-07-01T07:06:07;19.00;;;4.72;;
53833;SDS011;39735;51.432;5.482;2022-07-01T07:08:32;11.00;;;4.05;;
53833;SDS011;39735;51.432;5.482;2022-07-01T07:10:58;10.25;;;4.15;;
53833;SDS011;39735;51.432;5.482;2022-07-01T07:13:24;15.30;;;3.92;;
53833;SDS011;39735;51.432;5.482;2022-07-01T07:15:49;28.73;;;7.45;;
53833;SDS011;39735;51.432;5.482;2022-07-01T07:18:15;18.27;;;4.32;;
53833;SDS011;39735;51.432;5.482;2022-07-01T07:20:40;11.48;;;3.47;;
53833;SDS011;39735;51.432;5.482;2022-07-01T07:23:06;7.70;;;3.05;;
53833;SDS011;39735;51.432;5.482;2022-07-01T07:25:31;9.77;;;3.35;;
53833;SDS011;39735;51.432;5.482;2022-07-01T07:27:56;24.48;;;3.72;;
53833;SDS011;39735;51.432;5.482;2022-07-01T07:30:22;11.60;;;2.67;;
53833;SDS011;39735;51.432;5.482;2022-07-01T07:32:47;7.63;;;3.05;;
53833;SDS011;39735;51.432;5.482;2022-07-01T07:35:13;15.35;;;3.88;;
53833;SDS011;39735;51.432;5.482;2022-07-01T07:37:38;11.27;;;4.45;;
53833;SDS011;39735;51.432;5.482;2022-07-01T07:40:04;8.48;;;4.60;;
53833;SDS011;39735;51.432;5.482;2022-07-01T07:42:35;19.98;;;3.10;;
53833;SDS011;39735;51.432;5.482;2022-07-01T07:45:01;6.88;;;2.50;;
53833;SDS011;39735;51.432;5.482;2022-07-01T07:47:27;14.57;;;3.83;;
53833;SDS011;39735;51.432;5.482;2022-07-01T07:49:53;6.95;;;3.10;;
53833;SDS011;39735;51.432;5.482;2022-07-01T07:52:18;10.68;;;2.78;;
53833;SDS011;39735;51.432;5.482;2022-07-01T07:54:44;23.42;;;2.35;;
53833;SDS011;39735;51.432;5.482;2022-07-01T07:57:09;16.50;;;3.35;;
53833;SDS011;39735;51.432;5.482;2022-07-01T07:59:35;14.60;;;2.00;;
53833;SDS011;39735;51.432;5.482;2022-07-01T08:02:00;17.08;;;2.58;;
53833;SDS011;39735;51.432;5.482;2022-07-01T08:04:26;12.30;;;2.22;;
53833;SDS011;39735;51.432;5.482;2022-07-01T08:06:52;6.93;;;1.05;;
53833;SDS011;39735;51.432;5.482;2022-07-01T08:09:17;13.98;;;1.60;;
53833;SDS011;39735;51.432;5.482;2022-07-01T08:11:43;13.45;;;1.30;;
53833;SDS011;39735;51.432;5.482;2022-07-01T08:14:09;8.00;;;1.27;;
53833;SDS011;39735;51.432;5.482;2022-07-01T08:16:34;6.85;;;2.25;;
53833;SDS011;39735;51.432;5.482;2022-07-01T08:19:00;5.00;;;1.48;;
53833;SDS011;39735;51.432;5.482;2022-07-01T08:21:25;2.70;;;1.08;;
53833;SDS011;39735;51.432;5.482;2022-07-01T08:23:50;8.52;;;1.73;;
53833;SDS011;39735;51.432;5.482;2022-07-01T08:26:16;8.98;;;1.77;;
53833;SDS011;39735;51.432;5.482;2022-07-01T08:28:42;9.40;;;1.13;;
53833;SDS011;39735;51.432;5.482;2022-07-01T08:31:08;8.15;;;2.13;;
53833;SDS011;39735;51.432;5.482;2022-07-01T08:33:34;13.45;;;2.33;;
53833;SDS011;39735;51.432;5.482;2022-07-01T08:35:59;1.95;;;0.70;;
53833;SDS011;39735;51.432;5.482;2022-07-01T08:38:25;2.90;;;1.85;;
53833;SDS011;39735;51.432;5.482;2022-07-01T08:40:50;3.58;;;0.90;;
53833;SDS011;39735;51.432;5.482;2022-07-01T08:43:15;3.15;;;0.93;;
53833;SDS011;39735;51.432;5.482;2022-07-01T08:45:41;5.53;;;1.20;;
53833;SDS011;39735;51.432;5.482;2022-07-01T08:48:07;2.53;;;0.75;;
53833;SDS011;39735;51.432;5.482;2022-07-01T08:50:36;15.77;;;1.13;;
53833;SDS011;39735;51.432;5.482;2022-07-01T08:53:03;14.40;;;1.83;;
53833;SDS011;39735;51.432;5.482;2022-07-01T08:55:29;9.52;;;2.05;;
53833;SDS011;39735;51.432;5.482;2022-07-01T08:57:55;14.13;;;5.22;;
53833;SDS011;39735;51.432;5.482;2022-07-01T09:00:21;4.47;;;1.40;;
53833;SDS011;39735;51.432;5.482;2022-07-01T09:05:19;5.38;;;1.63;;
53833;SDS011;39735;51.432;5.482;2022-07-01T09:07:46;22.02;;;2.08;;
53833;SDS011;39735;51.432;5.482;2022-07-01T09:10:12;7.30;;;1.02;;
53833;SDS011;39735;51.432;5.482;2022-07-01T09:12:39;2.45;;;0.85;;
53833;SDS011;39735;51.432;5.482;2022-07-01T09:17:54;2.83;;;1.13;;
53833;SDS011;39735;51.432;5.482;2022-07-01T09:20:41;5.18;;;1.15;;
53833;SDS011;39735;51.432;5.482;2022-07-01T09:23:09;7.07;;;3.08;;
53833;SDS011;39735;51.432;5.482;2022-07-01T09:25:44;3.30;;;1.13;;
53833;SDS011;39735;51.432;5.482;2022-07-01T09:28:23;17.88;;;1.17;;
53833;SDS011;39735;51.432;5.482;2022-07-01T09:30:51;8.02;;;1.52;;
53833;SDS011;39735;51.432;5.482;2022-07-01T09:33:22;16.73;;;1.75;;
53833;SDS011;39735;51.432;5.482;2022-07-01T09:35:49;4.00;;;1.08;;
53833;SDS011;39735;51.432;5.482;2022-07-01T09:38:16;14.45;;;1.15;;
53833;SDS011;39735;51.432;5.482;2022-07-01T09:40:50;4.00;;;1.05;;
53833;SDS011;39735;51.432;5.482;2022-07-01T09:43:26;6.97;;;1.33;;
53833;SDS011;39735;51.432;5.482;2022-07-01T09:48:24;23.67;;;1.45;;
53833;SDS011;39735;51.432;5.482;2022-07-01T09:51:10;2.10;;;0.98;;
53833;SDS011;39735;51.432;5.482;2022-07-01T09:53:37;19.85;;;2.00;;
53833;SDS011;39735;51.432;5.482;2022-07-01T09:56:03;4.13;;;1.00;;
53833;SDS011;39735;51.432;5.482;2022-07-01T09:58:29;5.32;;;1.30;;
53833;SDS011;39735;51.432;5.482;2022-07-01T10:00:57;7.60;;;1.63;;
53833;SDS011;39735;51.432;5.482;2022-07-01T10:03:23;23.75;;;1.08;;
53833;SDS011;39735;51.432;5.482;2022-07-01T10:05:54;8.43;;;1.08;;
53833;SDS011;39735;51.432;5.482;2022-07-01T10:14:10;13.00;;;1.10;;
53833;SDS011;39735;51.432;5.482;2022-07-01T10:16:37;4.63;;;1.02;;
53833;SDS011;39735;51.432;5.482;2022-07-01T10:19:06;12.40;;;1.20;;
53833;SDS011;39735;51.432;5.482;2022-07-01T10:21:51;8.23;;;1.60;;
53833;SDS011;39735;51.432;5.482;2022-07-01T10:24:19;4.60;;;1.08;;
53833;SDS011;39735;51.432;5.482;2022-07-01T10:26:45;7.57;;;0.98;;
53833;SDS011;39735;51.432;5.482;2022-07-01T10:29:30;7.63;;;0.80;;
53833;SDS011;39735;51.432;5.482;2022-07-01T10:32:09;8.43;;;0.80;;
53833;SDS011;39735;51.432;5.482;2022-07-01T10:34:39;3.70;;;1.23;;
53833;SDS011;39735;51.432;5.482;2022-07-01T10:37:06;6.93;;;1.00;;
53833;SDS011;39735;51.432;5.482;2022-07-01T10:42:28;7.95;;;0.98;;
53833;SDS011;39735;51.432;5.482;2022-07-01T10:47:36;6.72;;;0.80;;
53833;SDS011;39735;51.432;5.482;2022-07-01T10:50:03;3.60;;;0.88;;
53833;SDS011;39735;51.432;5.482;2022-07-01T10:52:30;11.38;;;3.47;;
53833;SDS011;39735;51.432;5.482;2022-07-01T10:54:59;15.90;;;1.75;;
53833;SDS011;39735;51.432;5.482;2022-07-01T11:02:26;5.97;;;1.08;;
53833;SDS011;39735;51.432;5.482;2022-07-01T11:04:54;10.10;;;0.82;;
53833;SDS011;39735;51.432;5.482;2022-07-01T11:07:30;5.85;;;0.82;;
53833;SDS011;39735;51.432;5.482;2022-07-01T11:09:57;7.93;;;1.20;;
53833;SDS011;39735;51.432;5.482;2022-07-01T11:12:24;4.95;;;0.73;;
53833;SDS011;39735;51.432;5.482;2022-07-01T11:14:49;12.63;;;1.52;;
53833;SDS011;39735;51.432;5.482;2022-07-01T11:17:16;6.47;;;3.20;;
53833;SDS011;39735;51.432;5.482;2022-07-01T11:19:48;5.18;;;0.55;;
53833;SDS011;39735;51.432;5.482;2022-07-01T11:22:18;1.92;;;0.63;;
53833;SDS011;39735;51.432;5.482;2022-07-01T11:24:44;4.28;;;0.98;;
53833;SDS011;39735;51.432;5.482;2022-07-01T11:27:10;5.38;;;0.93;;
53833;SDS011;39735;51.432;5.482;2022-07-01T11:29:35;7.97;;;1.52;;
53833;SDS011;39735;51.432;5.482;2022-07-01T11:32:01;6.55;;;0.88;;
53833;SDS011;39735;51.432;5.482;2022-07-01T11:34:27;3.10;;;1.15;;
53833;SDS011;39735;51.432;5.482;2022-07-01T11:36:53;3.90;;;1.02;;
53833;SDS011;39735;51.432;5.482;2022-07-01T11:39:38;6.75;;;0.93;;
53833;SDS011;39735;51.432;5.482;2022-07-01T11:42:06;14.52;;;1.08;;
53833;SDS011;39735;51.432;5.482;2022-07-01T11:44:36;8.43;;;1.00;;
53833;SDS011;39735;51.432;5.482;2022-07-01T11:47:03;4.40;;;1.17;;
53833;SDS011;39735;51.432;5.482;2022-07-01T11:49:49;5.88;;;1.10;;
53833;SDS011;39735;51.432;5.482;2022-07-01T11:52:15;10.70;;;1.00;;
53833;SDS011;39735;51.432;5.482;2022-07-01T11:54:44;14.93;;;1.05;;
53833;SDS011;39735;51.432;5.482;2022-07-01T11:57:23;5.93;;;0.95;;
53833;SDS011;39735;51.432;5.482;2022-07-01T11:59:50;7.85;;;0.70;;
53833;SDS011;39735;51.432;5.482;2022-07-01T12:02:17;4.07;;;0.40;;
53833;SDS011;39735;51.432;5.482;2022-07-01T12:04:46;6.32;;;0.93;;
53833;SDS011;39735;51.432;5.482;2022-07-01T12:07:13;14.85;;;1.30;;
53833;SDS011;39735;51.432;5.482;2022-07-01T12:09:39;7.78;;;1.05;;
53833;SDS011;39735;51.432;5.482;2022-07-01T12:12:05;10.00;;;1.85;;
53833;SDS011;39735;51.432;5.482;2022-07-01T12:14:34;2.47;;;0.65;;
53833;SDS011;39735;51.432;5.482;2022-07-01T12:17:01;8.13;;;1.10;;
53833;SDS011;39735;51.432;5.482;2022-07-01T12:21:58;4.82;;;1.10;;
53833;SDS011;39735;51.432;5.482;2022-07-01T12:24:23;2.38;;;0.75;;
53833;SDS011;39735;51.432;5.482;2022-07-01T12:26:53;4.18;;;1.00;;
53833;SDS011;39735;51.432;5.482;2022-07-01T12:29:51;5.43;;;1.27;;
53833;SDS011;39735;51.432;5.482;2022-07-01T12:34:45;3.28;;;0.65;;
53833;SDS011;39735;51.432;5.482;2022-07-01T12:37:12;15.15;;;1.23;;
53833;SDS011;39735;51.432;5.482;2022-07-01T12:39:49;4.53;;;1.00;;
53833;SDS011;39735;51.432;5.482;2022-07-01T12:42:24;7.47;;;1.48;;
53833;SDS011;39735;51.432;5.482;2022-07-01T12:44:55;7.45;;;1.55;;
53833;SDS011;39735;51.432;5.482;2022-07-01T12:47:29;10.15;;;1.23;;
53833;SDS011;39735;51.432;5.482;2022-07-01T12:55:33;8.60;;;1.40;;
53833;SDS011;39735;51.432;5.482;2022-07-01T12:58:10;1.90;;;1.00;;
53833;SDS011;39735;51.432;5.482;2022-07-01T13:00:41;7.57;;;1.23;;
53833;SDS011;39735;51.432;5.482;2022-07-01T13:03:07;5.35;;;0.95;;
53833;SDS011;39735;51.432;5.482;2022-07-01T13:05:35;11.93;;;0.70;;
53833;SDS011;39735;51.432;5.482;2022-07-01T13:08:02;0.93;;;0.60;;
53833;SDS011;39735;51.432;5.482;2022-07-01T13:10:28;17.08;;;1.20;;
53833;SDS011;39735;51.432;5.482;2022-07-01T13:12:54;2.60;;;0.82;;
53833;SDS011;39735;51.432;5.482;2022-07-01T13:15:19;4.50;;;1.48;;
53833;SDS011;39735;51.432;5.482;2022-07-01T13:17:45;7.50;;;1.45;;
53833;SDS011;39735;51.432;5.482;2022-07-01T13:20:12;3.33;;;0.80;;
53833;SDS011;39735;51.432;5.482;2022-07-01T13:22:38;1.35;;;0.60;;
53833;SDS011;39735;51.432;5.482;2022-07-01T13:25:03;5.32;;;0.70;;
53833;SDS011;39735;51.432;5.482;2022-07-01T13:27:29;5.35;;;1.23;;
53833;SDS011;39735;51.432;5.482;2022-07-01T13:29:55;7.38;;;3.33;;
53833;SDS011;39735;51.432;5.482;2022-07-01T13:32:21;3.63;;;0.98;;
53833;SDS011;39735;51.432;5.482;2022-07-01T13:34:47;4.03;;;0.60;;
53833;SDS011;39735;51.432;5.482;2022-07-01T13:37:12;10.90;;;1.10;;
53833;SDS011;39735;51.432;5.482;2022-07-01T13:39:37;14.50;;;1.45;;
53833;SDS011;39735;51.432;5.482;2022-07-01T13:42:03;0.95;;;0.45;;
53833;SDS011;39735;51.432;5.482;2022-07-01T13:44:29;13.88;;;1.67;;
53833;SDS011;39735;51.432;5.482;2022-07-01T13:46:54;2.78;;;0.70;;
53833;SDS011;39735;51.432;5.482;2022-07-01T13:49:19;4.32;;;0.93;;
53833;SDS011;39735;51.432;5.482;2022-07-01T13:51:45;5.70;;;3.28;;
53833;SDS011;39735;51.432;5.482;2022-07-01T13:54:10;3.75;;;0.93;;
53833;SDS011;39735;51.432;5.482;2022-07-01T13:56:36;8.65;;;1.70;;
53833;SDS011;39735;51.432;5.482;2022-07-01T13:59:01;4.72;;;1.15;;
53833;SDS011;39735;51.432;5.482;2022-07-01T14:01:27;4.38;;;1.13;;
53833;SDS011;39735;51.432;5.482;2022-07-01T14:03:53;4.60;;;1.27;;
53833;SDS011;39735;51.432;5.482;2022-07-01T14:06:18;6.43;;;0.80;;
53833;SDS011;39735;51.432;5.482;2022-07-01T14:08:44;13.40;;;1.40;;
53833;SDS011;39735;51.432;5.482;2022-07-01T14:11:10;3.45;;;1.05;;
53833;SDS011;39735;51.432;5.482;2022-07-01T14:13:36;10.40;;;0.82;;
53833;SDS011;39735;51.432;5.482;2022-07-01T14:16:02;5.60;;;2.67;;
53833;SDS011;39735;51.432;5.482;2022-07-01T14:18:29;2.85;;;0.70;;
53833;SDS011;39735;51.432;5.482;2022-07-01T14:20:54;3.92;;;1.17;;
53833;SDS011;39735;51.432;5.482;2022-07-01T14:23:19;2.80;;;0.68;;
53833;SDS011;39735;51.432;5.482;2022-07-01T14:25:45;1.05;;;0.98;;
53833;SDS011;39735;51.432;5.482;2022-07-01T14:28:11;3.58;;;0.80;;
53833;SDS011;39735;51.432;5.482;2022-07-01T14:30:37;6.55;;;1.65;;
53833;SDS011;39735;51.432;5.482;2022-07-01T14:33:02;20.98;;;0.77;;
53833;SDS011;39735;51.432;5.482;2022-07-01T14:35:28;29.70;;;1.50;;
53833;SDS011;39735;51.432;5.482;2022-07-01T14:37:54;6.70;;;0.60;;
53833;SDS011;39735;51.432;5.482;2022-07-01T14:40:19;7.45;;;2.20;;
53833;SDS011;39735;51.432;5.482;2022-07-01T14:42:45;7.00;;;2.65;;
53833;SDS011;39735;51.432;5.482;2022-07-01T14:45:11;2.95;;;1.08;;
53833;SDS011;39735;51.432;5.482;2022-07-01T14:47:38;3.90;;;1.02;;
53833;SDS011;39735;51.432;5.482;2022-07-01T14:50:07;8.27;;;0.93;;
53833;SDS011;39735;51.432;5.482;2022-07-01T14:52:33;4.90;;;0.65;;
53833;SDS011;39735;51.432;5.482;2022-07-01T14:54:59;1.42;;;0.60;;
53833;SDS011;39735;51.432;5.482;2022-07-01T14:57:24;7.45;;;0.80;;
53833;SDS011;39735;51.432;5.482;2022-07-01T14:59:50;9.30;;;0.95;;
53833;SDS011;39735;51.432;5.482;2022-07-01T15:02:15;2.72;;;0.98;;
53833;SDS011;39735;51.432;5.482;2022-07-01T15:04:41;5.88;;;0.82;;
53833;SDS011;39735;51.432;5.482;2022-07-01T15:07:06;1.80;;;0.73;;
53833;SDS011;39735;51.432;5.482;2022-07-01T15:09:32;18.40;;;1.75;;